createdAt,value
2022-08-09T00:00:11.334Z,101974.03
2022-08-09T00:02:42.786Z,101973.97
2022-08-09T00:06:15.822Z,101973.53
2022-08-09T00:08:02.409Z,101979.97
2022-08-09T00:10:29.030Z,101971.84
2022-08-09T00:12:56.970Z,101972.63
2022-08-09T00:15:26.496Z,101973.78
2022-08-09T00:18:05.068Z,101977.84
2022-08-09T00:20:41.428Z,101972.94
2022-08-09T00:23:57.368Z,101977.00
2022-08-09T00:26:05.165Z,101974.13
2022-08-09T00:28:32.330Z,101970.84
2022-08-09T00:31:50.439Z,101966.75
2022-08-09T00:33:50.853Z,101974.84
2022-08-09T00:36:18.520Z,101962.66
2022-08-09T00:38:45.304Z,101967.13
2022-08-09T00:44:10.305Z,101974.38
2022-08-09T00:44:16.199Z,101974.78
2022-08-09T00:46:56.572Z,101969.47
2022-08-09T00:49:28.237Z,101977.56
2022-08-09T00:51:57.300Z,101976.72
2022-08-09T00:54:31.595Z,101974.69
2022-08-09T00:57:02.461Z,101967.34
2022-08-09T00:59:41.123Z,101975.00
2022-08-09T01:02:09.215Z,101971.69
2022-08-09T01:04:49.429Z,101970.41
2022-08-09T01:07:38.170Z,101974.44
2022-08-09T01:10:29.008Z,101977.63
2022-08-09T01:13:04.663Z,101981.22
2022-08-09T01:15:43.417Z,101984.84
2022-08-09T01:18:29.834Z,101974.69
2022-08-09T01:21:41.264Z,101974.59
2022-08-09T01:24:36.474Z,101975.72
2022-08-09T01:27:15.208Z,101989.47
2022-08-09T01:29:55.148Z,101978.53
2022-08-09T01:32:33.779Z,101974.84
2022-08-09T01:35:06.894Z,101982.53
2022-08-09T01:38:08.393Z,101985.72
2022-08-09T01:40:35.567Z,101985.31
2022-08-09T01:43:05.184Z,101980.03
2022-08-09T01:45:34.395Z,101980.41
2022-08-09T01:48:12.541Z,101988.47
2022-08-09T01:50:48.445Z,101987.22
2022-08-09T01:53:19.304Z,101983.16
2022-08-09T01:55:48.174Z,101983.91
2022-08-09T01:58:16.560Z,101986.69
2022-08-09T02:00:46.237Z,101981.44
2022-08-09T02:03:19.383Z,101983.41
2022-08-09T02:06:03.861Z,101978.88
2022-08-09T02:08:57.948Z,101984.94
2022-08-09T02:11:23.708Z,101980.81
2022-08-09T02:13:55.290Z,101984.00
2022-08-09T02:16:53.055Z,101986.44
2022-08-09T02:19:22.522Z,101979.53
2022-08-09T02:21:55.736Z,101975.44
2022-08-09T02:24:26.833Z,101982.31
2022-08-09T02:26:58.723Z,101982.25
2022-08-09T02:29:31.346Z,101976.19
2022-08-09T02:32:03.679Z,101971.69
2022-08-09T02:34:41.695Z,101973.28
2022-08-09T02:37:24.097Z,101978.50
2022-08-09T02:40:03.341Z,101971.59
2022-08-09T02:42:34.872Z,101980.09
2022-08-09T02:45:07.673Z,101974.44
2022-08-09T02:47:58.010Z,101972.41
2022-08-09T02:50:53.086Z,101965.50
2022-08-09T02:53:34.847Z,101970.78
2022-08-09T02:56:04.316Z,101960.28
2022-08-09T02:58:36.639Z,101968.38
2022-08-09T03:01:11.175Z,101963.94
2022-08-09T03:04:12.493Z,101969.94
2022-08-09T03:06:31.068Z,101974.34
2022-08-09T03:09:00.710Z,101970.69
2022-08-09T03:11:29.917Z,101974.72
2022-08-09T03:14:16.742Z,101967.06
2022-08-09T03:16:47.736Z,101970.28
2022-08-09T03:19:58.054Z,101974.28
2022-08-09T03:22:06.078Z,101967.81
2022-08-09T03:24:52.317Z,101978.69
2022-08-09T03:27:21.467Z,101975.00
2022-08-09T03:29:58.075Z,101977.00
2022-08-09T03:32:29.967Z,101976.59
2022-08-09T03:34:58.077Z,101983.41
2022-08-09T03:37:55.732Z,101973.31
2022-08-09T03:40:13.030Z,101985.00
2022-08-09T03:42:40.066Z,101978.16
2022-08-09T03:45:10.863Z,101978.56
2022-08-09T03:47:40.010Z,101972.91
2022-08-09T03:50:10.860Z,101979.28
2022-08-09T03:52:40.523Z,101981.25
2022-08-09T03:55:10.708Z,101980.38
2022-08-09T03:57:44.723Z,101984.03
2022-08-09T04:00:20.663Z,101983.59
2022-08-09T04:02:52.746Z,101984.78
2022-08-09T04:05:27.843Z,101989.19
2022-08-09T04:07:57.241Z,101984.72
2022-08-09T04:10:28.917Z,101995.59
2022-08-09T04:13:01.239Z,101988.31
2022-08-09T04:16:17.258Z,101980.22
2022-08-09T04:18:19.360Z,101993.53
2022-08-09T04:20:48.066Z,101995.47
2022-08-09T04:23:16.773Z,101997.41
2022-08-09T04:25:44.985Z,102000.19
2022-08-09T04:28:34.121Z,102001.38
2022-08-09T04:31:05.861Z,102005.78
2022-08-09T04:33:47.674Z,101998.13
2022-08-09T04:36:25.495Z,102005.34
2022-08-09T04:38:53.969Z,102002.97
2022-08-09T04:41:23.303Z,102000.94
2022-08-09T04:44:06.360Z,102004.97
2022-08-09T04:46:59.062Z,102016.28
2022-08-09T04:49:40.923Z,102007.78
2022-08-09T04:52:11.002Z,102008.53
2022-08-09T04:54:37.840Z,102013.75
2022-08-09T04:57:04.641Z,102010.13
2022-08-09T04:59:35.849Z,102018.59
2022-08-09T05:02:03.221Z,102008.47
2022-08-09T05:04:31.015Z,102008.94
2022-08-09T05:06:58.082Z,102015.00
2022-08-09T05:09:24.697Z,102030.00
2022-08-09T05:11:51.513Z,102017.97
2022-08-09T05:14:18.531Z,102019.59
2022-08-09T05:16:58.785Z,102026.88
2022-08-09T05:19:31.715Z,102028.50
2022-08-09T05:23:50.409Z,102029.78
2022-08-09T05:25:01.051Z,102026.19
2022-08-09T05:27:29.182Z,102029.44
2022-08-09T05:29:57.644Z,102026.69
2022-08-09T05:32:25.711Z,102030.75
2022-08-09T05:34:52.236Z,102031.63
2022-08-09T05:37:18.753Z,102027.25
2022-08-09T05:39:45.370Z,102026.88
2022-08-09T05:42:17.552Z,102035.78
2022-08-09T05:44:52.603Z,102030.19
2022-08-09T05:47:21.697Z,102022.97
2022-08-09T05:50:31.205Z,102027.03
2022-08-09T05:52:38.636Z,102031.94
2022-08-09T05:55:07.243Z,102024.75
2022-08-09T05:57:55.671Z,102025.63
2022-08-09T06:00:22.830Z,102025.34
2022-08-09T06:02:54.346Z,102020.91
2022-08-09T06:05:50.653Z,102031.94
2022-08-09T06:08:11.148Z,102033.22
2022-08-09T06:10:38.265Z,102027.66
2022-08-09T06:13:12.366Z,102031.34
2022-08-09T06:15:46.692Z,102039.13
2022-08-09T06:18:14.085Z,102032.31
2022-08-09T06:20:42.743Z,102035.19
2022-08-09T06:23:12.073Z,102037.28
2022-08-09T06:25:42.107Z,102045.44
2022-08-09T06:28:10.080Z,102050.31
2022-08-09T06:30:36.902Z,102043.50
2022-08-09T06:33:41.064Z,102052.50
2022-08-09T06:35:56.927Z,102051.34
2022-08-09T06:38:32.201Z,102050.59
2022-08-09T06:41:04.857Z,102048.28
2022-08-09T06:43:46.201Z,102050.75
2022-08-09T06:46:39.140Z,102051.22
2022-08-09T06:49:00.402Z,102055.72
2022-08-09T06:51:27.190Z,102057.84
2022-08-09T06:53:55.116Z,102061.16
2022-08-09T06:56:21.649Z,102064.03
2022-08-09T07:00:51.346Z,102059.69
2022-08-09T07:01:54.166Z,102061.06
2022-08-09T07:04:24.417Z,102061.56
2022-08-09T07:06:53.077Z,102056.38
2022-08-09T07:09:55.093Z,102062.94
2022-08-09T07:12:06.991Z,102054.88
2022-08-09T07:14:44.335Z,102059.38
2022-08-09T07:17:11.382Z,102056.59
2022-08-09T07:19:38.660Z,102063.94
2022-08-09T07:22:05.583Z,102059.09
2022-08-09T07:24:39.750Z,102057.91
2022-08-09T07:27:21.071Z,102058.81
2022-08-09T07:29:56.785Z,102054.41
2022-08-09T07:32:23.895Z,102050.47
2022-08-09T07:35:02.643Z,102050.19
2022-08-09T07:37:43.151Z,102048.72
2022-08-09T07:40:14.361Z,102052.53
2022-08-09T07:42:50.732Z,102056.72
2022-08-09T07:45:40.378Z,102051.00
2022-08-09T07:48:22.621Z,102062.19
2022-08-09T07:51:10.288Z,102058.59
2022-08-09T07:53:45.208Z,102056.09
2022-08-09T07:56:33.217Z,102058.81
2022-08-09T07:58:59.858Z,102052.13
2022-08-09T08:01:32.987Z,102054.06
2022-08-09T08:04:03.913Z,102055.06
2022-08-09T08:06:37.623Z,102058.53
2022-08-09T08:09:39.791Z,102049.13
2022-08-09T08:12:27.607Z,102043.75
2022-08-09T08:14:55.712Z,102047.75
2022-08-09T08:17:35.489Z,102061.78
2022-08-09T08:20:12.686Z,102056.19
2022-08-09T08:22:40.640Z,102054.50
2022-08-09T08:25:09.391Z,102059.28
2022-08-09T08:27:43.128Z,102065.00
2022-08-09T08:30:11.277Z,102059.44
2022-08-09T08:32:52.304Z,102056.34
2022-08-09T08:35:22.489Z,102054.41
2022-08-09T08:38:02.055Z,102052.13
2022-08-09T08:40:32.584Z,102056.03
2022-08-09T08:43:01.244Z,102048.13
2022-08-09T08:45:37.145Z,102043.16
2022-08-09T08:48:05.737Z,102045.66
2022-08-09T08:50:32.905Z,102039.81
2022-08-09T08:53:02.376Z,102044.72
2022-08-09T08:55:32.231Z,102053.78
2022-08-09T08:57:59.184Z,102048.03
2022-08-09T09:00:34.233Z,102046.25
2022-08-09T09:03:11.257Z,102045.53
2022-08-09T09:05:58.415Z,102055.50
2022-08-09T09:08:37.788Z,102050.31
2022-08-09T09:11:07.591Z,102055.63
2022-08-09T09:13:54.935Z,102045.47
2022-08-09T09:16:30.341Z,102048.22
2022-08-09T09:19:15.743Z,102049.69
2022-08-09T09:22:04.216Z,102047.50
2022-08-09T09:24:44.841Z,102036.19
2022-08-09T09:28:03.498Z,102038.31
2022-08-09T09:30:39.798Z,102044.63
2022-08-09T09:33:16.948Z,102044.06
2022-08-09T09:36:11.746Z,102038.06
2022-08-09T09:38:56.804Z,102042.59
2022-08-09T09:41:24.059Z,102050.03
2022-08-09T09:44:13.444Z,102055.31
2022-08-09T09:46:50.365Z,102051.19
2022-08-09T09:49:32.299Z,102055.25
2022-08-09T09:52:16.414Z,102048.72
2022-08-09T09:55:23.734Z,102052.91
2022-08-09T09:58:16.922Z,102053.72
2022-08-09T10:01:30.951Z,102053.31
2022-08-09T10:04:08.876Z,102056.06
2022-08-09T10:06:43.452Z,102045.41
2022-08-09T10:09:22.181Z,102051.47
2022-08-09T10:12:14.508Z,102051.84
2022-08-09T10:14:49.342Z,102046.75
2022-08-09T10:17:39.887Z,102045.16
2022-08-09T10:20:27.684Z,102047.94
2022-08-09T10:23:16.903Z,102034.78
2022-08-09T10:26:06.218Z,102036.78
2022-08-09T10:28:33.989Z,102035.16
2022-08-09T10:34:09.868Z,102035.44
2022-08-09T10:36:35.390Z,102042.00
2022-08-09T10:39:02.295Z,102031.31
2022-08-09T10:41:28.886Z,102036.59
2022-08-09T10:43:59.466Z,102033.66
2022-08-09T10:46:55.274Z,102033.31
2022-08-09T10:49:51.270Z,102040.59
2022-08-09T10:52:22.972Z,102032.69
2022-08-09T10:54:53.640Z,102024.84
2022-08-09T10:57:20.391Z,102032.09
2022-08-09T10:59:57.754Z,102031.56
2022-08-09T11:03:11.853Z,102038.88
2022-08-09T11:05:29.824Z,102036.28
2022-08-09T11:07:59.478Z,102036.28
2022-08-09T11:10:56.077Z,102044.53
2022-08-09T11:13:50.660Z,102033.41
2022-08-09T11:16:35.594Z,102028.66
2022-08-09T11:19:07.830Z,102030.66
2022-08-09T11:22:05.050Z,102032.34
2022-08-09T11:25:02.118Z,102031.81
2022-08-09T11:28:05.324Z,102025.47
2022-08-09T11:30:33.306Z,102024.50
2022-08-09T11:33:16.704Z,102022.72
2022-08-09T11:35:57.914Z,102021.81
2022-08-09T11:38:34.007Z,102013.94
2022-08-09T11:41:37.905Z,102012.66
2022-08-09T11:44:05.335Z,102000.22
2022-08-09T11:46:54.618Z,102004.31
2022-08-09T11:50:55.698Z,102003.44
2022-08-09T11:53:20.959Z,102000.84
2022-08-09T11:55:52.596Z,102002.75
2022-08-09T11:58:30.420Z,101992.44
2022-08-09T12:01:08.319Z,101998.50
2022-08-09T12:03:56.819Z,102000.03
2022-08-09T12:06:32.912Z,101996.75
2022-08-09T12:09:05.892Z,101999.25
2022-08-09T12:12:02.183Z,101996.75
2022-08-09T12:14:40.499Z,101981.66
2022-08-09T12:17:23.356Z,101987.50
2022-08-09T12:20:12.329Z,101981.03
2022-08-09T12:22:44.314Z,101985.88
2022-08-09T12:25:19.701Z,101985.44
2022-08-09T12:29:11.817Z,101979.13
2022-08-09T12:31:11.293Z,101977.69
2022-08-09T12:34:01.012Z,101977.97
2022-08-09T12:36:33.844Z,101972.13
2022-08-09T12:39:01.452Z,101969.59
2022-08-09T12:41:38.954Z,101974.53
2022-08-09T12:44:09.892Z,101974.53
2022-08-09T12:46:49.046Z,101967.66
2022-08-09T12:49:17.317Z,101963.50
2022-08-09T12:52:02.371Z,101969.25
2022-08-09T12:55:03.270Z,101962.63
2022-08-09T12:57:42.927Z,101951.81
2022-08-09T13:00:32.450Z,101953.06
2022-08-09T13:03:02.455Z,101952.09
2022-08-09T13:05:51.501Z,101956.19
2022-08-09T13:08:40.266Z,101956.00
2022-08-09T13:11:23.053Z,101950.19
2022-08-09T13:14:37.944Z,101947.31
2022-08-09T13:16:53.602Z,101947.75
2022-08-09T13:20:10.276Z,101938.78
2022-08-09T13:22:36.588Z,101931.66
2022-08-09T13:25:07.350Z,101937.34
2022-08-09T13:27:39.901Z,101941.84
2022-08-09T13:30:49.173Z,101941.38
2022-08-09T13:33:06.988Z,101931.38
2022-08-09T13:36:39.552Z,101930.47
2022-08-09T13:38:55.996Z,101924.63
2022-08-09T13:41:56.661Z,101926.25
2022-08-09T13:43:58.577Z,101914.63
2022-08-09T13:47:16.758Z,101921.16
2022-08-09T13:49:17.969Z,101919.94
2022-08-09T13:52:00.535Z,101915.00
2022-08-09T13:54:27.218Z,101907.97
2022-08-09T13:56:58.842Z,101907.16
2022-08-09T13:59:25.614Z,101907.16
2022-08-09T14:02:01.976Z,101914.06
2022-08-09T14:04:29.199Z,101918.09
2022-08-09T14:07:00.775Z,101914.44
2022-08-09T14:09:30.286Z,101904.06
2022-08-09T14:12:06.810Z,101903.25
2022-08-09T14:14:43.941Z,101898.31
2022-08-09T14:17:12.996Z,101914.31
2022-08-09T14:19:43.431Z,101909.72
2022-08-09T14:22:11.410Z,101904.28
2022-08-09T14:24:39.679Z,101901.00
2022-08-09T14:27:20.530Z,101895.13
2022-08-09T14:30:34.592Z,101904.09
2022-08-09T14:32:34.415Z,101897.78
2022-08-09T14:35:05.842Z,101893.19
2022-08-09T14:38:01.330Z,101888.50
2022-08-09T14:40:19.134Z,101885.84
2022-08-09T14:43:05.526Z,101889.84
2022-08-09T14:47:01.153Z,101894.38
2022-08-09T14:48:18.522Z,101891.50
2022-08-09T14:50:45.717Z,101895.28
2022-08-09T14:53:13.844Z,101891.72
2022-08-09T14:55:42.243Z,101893.78
2022-08-09T14:58:14.743Z,101893.09
2022-08-09T15:00:42.479Z,101884.47
2022-08-09T15:03:20.193Z,101882.84
2022-08-09T15:05:51.278Z,101895.97
2022-08-09T15:08:24.832Z,101892.66
2022-08-09T15:11:00.996Z,101889.78
2022-08-09T15:13:56.784Z,101886.91
2022-08-09T15:16:18.147Z,101887.69
2022-08-09T15:18:44.659Z,101890.56
2022-08-09T15:22:01.405Z,101888.13
2022-08-09T15:24:12.454Z,101880.66
2022-08-09T15:26:46.191Z,101884.34
2022-08-09T15:30:48.534Z,101885.94
2022-08-09T15:31:59.983Z,101879.88
2022-08-09T15:34:34.418Z,101881.94
2022-08-09T15:37:04.302Z,101882.38
2022-08-09T15:39:44.021Z,101879.16
2022-08-09T15:42:18.824Z,101883.31
2022-08-09T15:44:45.792Z,101879.63
2022-08-09T15:47:14.596Z,101877.19
2022-08-09T15:50:03.523Z,101877.97
2022-08-09T15:52:36.038Z,101884.56
2022-08-09T15:55:05.142Z,101884.66
2022-08-09T15:57:35.259Z,101876.84
2022-08-09T16:00:24.528Z,101878.13
2022-08-09T16:02:54.707Z,101880.19
2022-08-09T16:05:26.489Z,101869.13
2022-08-09T16:08:30.139Z,101864.97
2022-08-09T16:10:59.348Z,101872.00
2022-08-09T16:14:03.695Z,101873.59
2022-08-09T16:16:18.349Z,101873.28
2022-08-09T16:18:45.851Z,101870.06
2022-08-09T16:21:17.673Z,101870.16
2022-08-09T16:24:01.710Z,101873.94
2022-08-09T16:26:33.572Z,101866.94
2022-08-09T16:29:10.458Z,101865.31
2022-08-09T16:32:18.884Z,101864.19
2022-08-09T16:34:54.568Z,101863.72
2022-08-09T16:37:21.549Z,101862.91
2022-08-09T16:40:08.236Z,101854.41
2022-08-09T16:42:35.385Z,101854.06
2022-08-09T16:45:04.107Z,101861.06
2022-08-09T16:48:39.644Z,101852.91
2022-08-09T16:50:31.546Z,101853.03
2022-08-09T16:53:01.440Z,101855.53
2022-08-09T16:55:31.397Z,101858.06
2022-08-09T16:58:16.655Z,101855.63
2022-08-09T17:00:43.746Z,101858.19
2022-08-09T17:03:21.292Z,101860.72
2022-08-09T17:06:06.887Z,101862.41
2022-08-09T17:08:44.380Z,101864.59
2022-08-09T17:11:13.867Z,101856.91
2022-08-09T17:13:41.996Z,101868.03
2022-08-09T17:16:11.978Z,101871.78
2022-08-09T17:18:38.919Z,101870.28
2022-08-09T17:21:05.608Z,101876.13
2022-08-09T17:24:21.101Z,101877.50
2022-08-09T17:26:31.477Z,101862.44
2022-08-09T17:29:04.424Z,101869.88
2022-08-09T17:31:38.811Z,101872.50
2022-08-09T17:34:06.653Z,101879.97
2022-08-09T17:36:53.834Z,101878.47
2022-08-09T17:39:24.993Z,101881.44
2022-08-09T17:41:51.842Z,101874.16
2022-08-09T17:44:38.852Z,101889.88
2022-08-09T17:47:06.022Z,101885.88
2022-08-09T17:49:37.393Z,101883.88
2022-08-09T17:52:22.433Z,101883.59
2022-08-09T17:54:49.696Z,101893.09
2022-08-09T17:57:20.522Z,101893.66
2022-08-09T18:00:05.570Z,101892.50
2022-08-09T18:02:34.193Z,101891.78
2022-08-09T18:05:00.786Z,101891.53
2022-08-09T18:07:27.299Z,101899.41
2022-08-09T18:10:05.080Z,101895.03
2022-08-09T18:12:40.504Z,101900.03
2022-08-09T18:15:18.992Z,101906.66
2022-08-09T18:18:02.187Z,101906.41
2022-08-09T18:20:54.896Z,101911.41
2022-08-09T18:24:11.082Z,101913.59
2022-08-09T18:26:04.031Z,101900.97
2022-08-09T18:30:39.883Z,101897.38
2022-08-09T18:31:24.701Z,101903.66
2022-08-09T18:33:58.922Z,101904.19
2022-08-09T18:36:32.369Z,101910.84
2022-08-09T18:39:05.287Z,101913.06
2022-08-09T18:41:34.723Z,101910.72
2022-08-09T18:44:03.586Z,101914.56
2022-08-09T18:46:47.038Z,101925.28
2022-08-09T18:49:18.832Z,101920.88
2022-08-09T18:51:54.889Z,101921.38
2022-08-09T18:54:28.534Z,101921.50
2022-08-09T18:57:05.802Z,101922.03
2022-08-09T18:59:37.433Z,101930.34
2022-08-09T19:02:16.062Z,101918.59
2022-08-09T19:04:47.326Z,101924.84
2022-08-09T19:07:16.286Z,101927.41
2022-08-09T19:10:14.742Z,101931.53
2022-08-09T19:12:34.103Z,101925.41
2022-08-09T19:15:06.391Z,101924.78
2022-08-09T19:17:39.748Z,101939.22
2022-08-09T19:20:21.559Z,101933.97
2022-08-09T19:22:50.443Z,101927.94
2022-08-09T19:25:41.319Z,101937.47
2022-08-09T19:28:09.128Z,101947.00
2022-08-09T19:30:44.654Z,101953.22
2022-08-09T19:33:19.022Z,101941.47
2022-08-09T19:35:58.035Z,101950.09
2022-08-09T19:38:25.585Z,101951.06
2022-08-09T19:40:53.785Z,101956.03
2022-08-09T19:43:58.105Z,101962.25
2022-08-09T19:46:08.556Z,101958.25
2022-08-09T19:49:02.132Z,101957.88
2022-08-09T19:51:27.916Z,101961.25
2022-08-09T19:54:01.132Z,101960.94
2022-08-09T19:56:29.465Z,101962.66
2022-08-09T19:59:18.177Z,101961.06
2022-08-09T20:02:03.429Z,101958.19
2022-08-09T20:04:37.340Z,101954.63
2022-08-09T20:07:12.398Z,101949.84
2022-08-09T20:09:47.749Z,101959.31
2022-08-09T20:12:30.268Z,101949.59
2022-08-09T20:15:04.674Z,101955.34
2022-08-09T20:17:54.453Z,101953.78
2022-08-09T20:20:22.119Z,101957.53
2022-08-09T20:22:51.195Z,101958.84
2022-08-09T20:25:23.084Z,101952.00
2022-08-09T20:27:49.925Z,101952.47
2022-08-09T20:30:18.047Z,101942.78
2022-08-09T20:32:52.436Z,101945.66
2022-08-09T20:35:20.288Z,101946.16
2022-08-09T20:38:22.081Z,101940.91
2022-08-09T20:40:33.526Z,101936.47
2022-08-09T20:43:12.033Z,101942.66
2022-08-09T20:45:57.440Z,101943.53
2022-08-09T20:48:31.015Z,101947.22
2022-08-09T20:50:59.224Z,101942.78
2022-08-09T20:53:36.499Z,101935.50
2022-08-09T20:56:19.840Z,101933.09
2022-08-09T20:58:57.917Z,101935.19
2022-08-09T21:01:34.379Z,101941.75
2022-08-09T21:05:51.340Z,101939.34
2022-08-09T21:06:58.329Z,101941.44
2022-08-09T21:09:41.756Z,101934.09
2022-08-09T21:14:41.614Z,101946.81
2022-08-09T21:18:11.414Z,101942.38
2022-08-09T21:20:18.832Z,101946.50
2022-08-09T21:22:46.743Z,101951.44
2022-08-09T21:25:38.077Z,101951.84
2022-08-09T21:28:07.116Z,101961.25
2022-08-09T21:30:37.055Z,101955.19
2022-08-09T21:33:07.858Z,101963.38
2022-08-09T21:35:40.555Z,101956.47
2022-08-09T21:38:10.641Z,101956.91
2022-08-09T21:40:39.047Z,101958.56
2022-08-09T21:43:07.915Z,101959.00
2022-08-09T21:45:38.974Z,101969.16
2022-08-09T21:48:07.182Z,101970.00
2022-08-09T21:50:38.974Z,101969.25
2022-08-09T21:53:19.993Z,101979.88
2022-08-09T21:55:53.932Z,101974.19
2022-08-09T21:58:20.433Z,101975.81
2022-08-09T22:00:48.690Z,101975.06
2022-08-09T22:03:19.771Z,101987.66
2022-08-09T22:05:52.910Z,101983.63
2022-08-09T22:08:24.541Z,101980.34
2022-08-09T22:11:49.138Z,101981.19
2022-08-09T22:13:43.363Z,101983.25
2022-08-09T22:16:10.949Z,101985.28
2022-08-09T22:18:53.181Z,101987.31
2022-08-09T22:21:24.381Z,101980.00
2022-08-09T22:23:59.375Z,101991.84
2022-08-09T22:26:35.276Z,101978.41
2022-08-09T22:29:09.552Z,101984.13
2022-08-09T22:31:53.155Z,101987.00
2022-08-09T22:34:25.576Z,101982.94
2022-08-09T22:36:53.903Z,101987.03
2022-08-09T22:39:56.347Z,101985.03
2022-08-09T22:42:20.991Z,101989.53
2022-08-09T22:48:06.112Z,101983.84
2022-08-09T22:48:10.228Z,101985.91
2022-08-09T22:50:23.262Z,101992.00
2022-08-09T22:52:54.838Z,101991.59
2022-08-09T22:55:24.890Z,101992.03
2022-08-09T22:58:00.598Z,101998.13
2022-08-09T23:00:29.540Z,101999.38
2022-08-09T23:02:56.323Z,101996.94
2022-08-09T23:05:23.045Z,101991.66
2022-08-09T23:08:21.962Z,102006.28
2022-08-09T23:10:50.410Z,102001.81
2022-08-09T23:13:16.947Z,101998.16
2022-08-09T23:15:43.433Z,102000.59
2022-08-09T23:18:29.920Z,101999.00
2022-08-09T23:20:56.460Z,101994.53
2022-08-09T23:23:22.962Z,102005.50
2022-08-09T23:25:49.444Z,102002.22
2022-08-09T23:28:16.302Z,101998.97
2022-08-09T23:30:51.633Z,102003.03
2022-08-09T23:33:19.273Z,102001.41
2022-08-09T23:36:05.188Z,102006.28
2022-08-09T23:38:32.267Z,101995.31
2022-08-09T23:40:58.791Z,101990.03
2022-08-09T23:43:25.299Z,101993.28
2022-08-09T23:45:51.816Z,101987.56
2022-08-09T23:48:19.590Z,101989.59
2022-08-09T23:50:46.199Z,101994.47
2022-08-09T23:53:12.900Z,101985.09
2022-08-09T23:55:46.198Z,101985.13
2022-08-09T23:58:27.540Z,101982.66
